Time;durP1;ratioP1;P1;durP2;ratioP2;P2;SDS_P1;SDS_P2;PMS_P1;PMS_P2;Temp;Humidity;BMP_temperature;BMP_pressure;BME280_temperature;BME280_humidity;BME280_pressure;Samples;Min_cycle;Max_cycle;Signal;HPM_P1;HPM_P2
2022/09/10 00:01:06;;;;;;;7.23;3.00;;;;;;;-145.50;100.00;65435.88;5070903;28;20110;-61
2022/09/10 00:03:32;;;;;;;8.38;3.72;;;;;;;-145.50;100.00;65435.88;5067146;28;20056;-61
2022/09/10 00:06:02;;;;;;;8.05;2.63;;;;;;;-145.50;100.00;65435.88;5050043;28;20114;-60
2022/09/10 00:08:30;;;;;;;9.05;2.75;;;;;;;-145.50;100.00;65435.88;5053182;28;20044;-61
2022/09/10 00:10:56;;;;;;;8.68;3.05;;;;;;;-145.50;100.00;65435.88;5054728;28;20088;-59
2022/09/10 00:13:23;;;;;;;11.25;3.42;;;;;;;-145.50;100.00;65435.88;5057434;28;20508;-61
2022/09/10 00:15:51;;;;;;;10.13;2.97;;;;;;;-145.50;100.00;65435.88;5064559;28;20742;-61
2022/09/10 00:18:21;;;;;;;9.38;3.15;;;;;;;-145.50;100.00;65435.88;5061823;28;20413;-61
2022/09/10 00:20:51;;;;;;;9.55;3.20;;;;;;;-145.50;100.00;65435.88;5060323;28;20060;-60
2022/09/10 00:23:21;;;;;;;7.85;3.20;;;;;;;-145.50;100.00;65435.88;5055745;28;20048;-61
2022/09/10 00:25:48;;;;;;;8.95;3.53;;;;;;;-145.50;100.00;65435.88;5065995;28;20037;-61
2022/09/10 00:28:15;;;;;;;10.77;4.18;;;;;;;-145.50;100.00;65435.88;5062013;28;20048;-61
2022/09/10 00:30:46;;;;;;;8.85;3.80;;;;;;;-145.50;100.00;65435.88;5070667;28;20494;-61
2022/09/10 00:33:14;;;;;;;9.98;4.25;;;;;;;-145.50;100.00;65435.88;5061740;28;20048;-61
2022/09/10 00:35:40;;;;;;;9.30;3.90;;;;;;;-145.50;100.00;65435.88;5066966;28;20098;-61
2022/09/10 00:38:09;;;;;;;11.68;4.82;;;;;;;-145.50;100.00;65435.88;5066425;28;20098;-61
2022/09/10 00:40:37;;;;;;;10.13;4.95;;;;;;;-145.50;100.00;65435.88;5060434;28;20143;-62
2022/09/10 00:43:17;;;;;;;15.43;6.10;;;;;;;-145.50;100.00;65435.88;5067294;28;20102;-62
2022/09/10 00:45:51;;;;;;;9.70;5.55;;;;;;;-145.50;100.00;65435.88;5053206;28;20068;-60
2022/09/10 00:48:26;;;;;;;13.52;6.07;;;;;;;-145.50;100.00;65435.88;5060015;28;20273;-61
2022/09/10 00:50:54;;;;;;;13.40;5.95;;;;;;;-145.50;100.00;65435.88;5057357;28;20508;-60
2022/09/10 00:53:25;;;;;;;13.07;6.20;;;;;;;-145.50;100.00;65435.88;5065033;28;20081;-61
2022/09/10 00:55:56;;;;;;;12.65;5.90;;;;;;;-145.50;100.00;65435.88;5059511;28;20053;-62
2022/09/10 00:58:23;;;;;;;13.38;6.03;;;;;;;-145.50;100.00;65435.88;5061912;28;20715;-62
2022/09/10 01:00:53;;;;;;;12.52;6.68;;;;;;;-145.50;100.00;65435.88;5062210;28;20049;-61
2022/09/10 01:03:20;;;;;;;12.55;7.07;;;;;;;-145.50;100.00;65435.88;5057516;28;20040;-61
2022/09/10 01:05:51;;;;;;;18.05;7.57;;;;;;;-145.50;100.00;65435.88;5065449;28;20237;-61
2022/09/10 01:08:18;;;;;;;14.88;7.68;;;;;;;-145.50;100.00;65435.88;5056790;28;20102;-61
2022/09/10 01:11:00;;;;;;;12.32;7.68;;;;;;;-145.50;100.00;65435.88;5063400;28;20091;-60
2022/09/10 01:13:32;;;;;;;16.25;9.27;;;;;;;-145.50;100.00;65435.88;5048136;28;20499;-61
2022/09/10 01:16:07;;;;;;;14.98;7.88;;;;;;;-145.50;100.00;65435.88;5049427;28;20052;-61
2022/09/10 01:19:01;;;;;;;18.58;9.70;;;;;;;-145.50;100.00;65435.88;5059359;28;20048;-59
2022/09/10 01:21:34;;;;;;;14.32;8.98;;;;;;;-145.50;100.00;65435.88;5062118;28;20408;-61
2022/09/10 01:24:40;;;;;;;13.18;8.40;;;;;;;-145.50;100.00;65435.88;5064813;28;20044;-61
2022/09/10 01:27:28;;;;;;;14.63;9.07;;;;;;;-145.50;100.00;65435.88;5056839;28;20555;-61
2022/09/10 01:30:07;;;;;;;17.35;9.27;;;;;;;-145.50;100.00;65435.88;5060490;28;20053;-61
2022/09/10 01:32:39;;;;;;;21.35;10.55;;;;;;;-145.50;100.00;65435.88;5061007;28;20044;-61
2022/09/10 01:35:15;;;;;;;18.13;9.45;;;;;;;-145.50;100.00;65435.88;5065143;28;20053;-61
2022/09/10 01:37:47;;;;;;;20.92;11.68;;;;;;;-145.50;100.00;65435.88;5059308;28;20063;-61
2022/09/10 01:40:16;;;;;;;21.13;10.60;;;;;;;-145.50;100.00;65435.88;5061223;28;20093;-62
2022/09/10 01:42:44;;;;;;;14.88;10.25;;;;;;;-145.50;100.00;65435.88;5051185;28;20110;-61
2022/09/10 01:45:14;;;;;;;16.33;10.07;;;;;;;-145.50;100.00;65435.88;5065297;28;20558;-61
2022/09/10 01:47:54;;;;;;;18.08;10.52;;;;;;;-145.50;100.00;65435.88;5058082;28;20155;-61
2022/09/10 01:50:35;;;;;;;17.23;9.85;;;;;;;-145.50;100.00;65435.88;5065068;28;20398;-61
2022/09/10 01:53:29;;;;;;;16.30;10.75;;;;;;;-145.50;100.00;65435.88;5057175;28;20044;-61
2022/09/10 01:56:28;;;;;;;16.60;9.82;;;;;;;-145.50;100.00;65435.88;5058561;28;20113;-61
2022/09/10 01:59:02;;;;;;;14.88;9.80;;;;;;;-145.50;100.00;65435.88;5058137;28;20040;-61
2022/09/10 02:01:38;;;;;;;15.90;10.30;;;;;;;-145.50;100.00;65435.88;5065637;28;20106;-61
2022/09/10 02:04:08;;;;;;;17.73;9.50;;;;;;;-145.50;100.00;65435.88;5065273;28;20048;-61
2022/09/10 02:06:39;;;;;;;17.38;9.20;;;;;;;-145.50;100.00;65435.88;5058379;28;20382;-61
2022/09/10 02:09:06;;;;;;;16.85;9.07;;;;;;;-145.50;100.00;65435.88;5060373;28;20045;-61
2022/09/10 02:11:44;;;;;;;17.08;9.52;;;;;;;-145.50;100.00;65435.88;5051227;28;20063;-61
2022/09/10 02:14:12;;;;;;;19.87;10.43;;;;;;;-145.50;100.00;65435.88;5064927;28;20508;-61
2022/09/10 02:16:44;;;;;;;16.77;9.00;;;;;;;-145.50;100.00;65435.88;5058760;28;20501;-62
2022/09/10 02:19:11;;;;;;;16.35;9.40;;;;;;;-145.50;100.00;65435.88;5053946;28;20481;-61
2022/09/10 02:21:37;;;;;;;19.50;9.90;;;;;;;-145.50;100.00;65435.88;5058495;28;20052;-61
2022/09/10 02:24:07;;;;;;;18.08;10.00;;;;;;;-145.50;100.00;65435.88;5057638;28;20512;-61
2022/09/10 02:26:37;;;;;;;21.80;11.10;;;;;;;-145.50;100.00;65435.88;5062647;28;20600;-61
2022/09/10 02:29:03;;;;;;;14.27;10.25;;;;;;;-145.50;100.00;65435.88;5055555;28;20044;-61
2022/09/10 02:31:29;;;;;;;18.50;10.48;;;;;;;-145.50;100.00;65435.88;5062189;28;20052;-62
2022/09/10 02:33:56;;;;;;;16.23;10.32;;;;;;;-145.50;100.00;65435.88;5059376;28;20049;-62
2022/09/10 02:36:24;;;;;;;17.50;10.95;;;;;;;-145.50;100.00;65435.88;5058232;28;20036;-61
2022/09/10 02:38:57;;;;;;;16.83;10.57;;;;;;;-145.50;100.00;65435.88;5047256;28;20106;-61
2022/09/10 02:41:24;;;;;;;13.90;10.48;;;;;;;-145.50;100.00;65435.88;5060040;28;20459;-61
2022/09/10 02:43:54;;;;;;;19.63;10.75;;;;;;;-145.50;100.00;65435.88;5064124;28;20098;-61
2022/09/10 02:46:21;;;;;;;19.38;10.73;;;;;;;-145.50;100.00;65435.88;5057406;28;20044;-61
2022/09/10 02:48:48;;;;;;;16.98;12.05;;;;;;;-145.50;100.00;65435.88;5064281;28;20106;-62
2022/09/10 02:51:14;;;;;;;16.38;10.68;;;;;;;-145.50;100.00;65435.88;5053063;28;20040;-62
2022/09/10 02:53:40;;;;;;;16.33;10.43;;;;;;;-145.50;100.00;65435.88;5058518;28;20501;-61
2022/09/10 02:56:07;;;;;;;18.50;9.98;;;;;;;-145.50;100.00;65435.88;5055548;28;20056;-62
2022/09/10 02:58:33;;;;;;;18.65;10.85;;;;;;;-145.50;100.00;65435.88;5064776;28;20055;-62
2022/09/10 03:01:08;;;;;;;17.52;10.68;;;;;;;-145.50;100.00;65435.88;5062160;28;20055;-62
2022/09/10 03:03:36;;;;;;;15.48;10.98;;;;;;;-145.50;100.00;65435.88;5059107;28;20579;-61
2022/09/10 03:06:03;;;;;;;14.57;10.40;;;;;;;-145.50;100.00;65435.88;5057051;28;20049;-61
2022/09/10 03:08:30;;;;;;;17.70;10.35;;;;;;;-145.50;100.00;65435.88;5055442;28;20101;-61
2022/09/10 03:10:58;;;;;;;19.55;11.20;;;;;;;-145.50;100.00;65435.88;5065216;28;20071;-61
2022/09/10 03:13:29;;;;;;;17.30;11.07;;;;;;;-145.50;100.00;65435.88;5058468;28;20059;-61
2022/09/10 03:15:57;;;;;;;14.20;10.30;;;;;;;-145.50;100.00;65435.88;5061501;28;20105;-61
2022/09/10 03:18:24;;;;;;;;;;;;;;;-145.50;100.00;65435.88;5049521;28;20051;-61
2022/09/10 03:20:50;;;;;;;16.02;10.40;;;;;;;-145.50;100.00;65435.88;5059258;28;19951;-61
2022/09/10 03:23:17;;;;;;;15.77;10.60;;;;;;;-145.50;100.00;65435.88;5063533;28;20852;-61
2022/09/10 03:25:45;;;;;;;13.75;10.40;;;;;;;-145.50;100.00;65435.88;5056601;28;20052;-60
2022/09/10 03:28:15;;;;;;;13.50;9.43;;;;;;;-145.50;100.00;65435.88;5063413;28;20131;-61
2022/09/10 03:30:41;;;;;;;14.20;11.18;;;;;;;-145.50;100.00;65435.88;5057494;28;20044;-61
2022/09/10 03:33:10;;;;;;;15.40;11.13;;;;;;;-145.50;100.00;65435.88;5059305;28;20102;-61
2022/09/10 03:35:37;;;;;;;14.70;10.45;;;;;;;-145.50;100.00;65435.88;5053141;28;20098;-61
2022/09/10 03:38:04;;;;;;;14.15;10.57;;;;;;;-145.50;100.00;65435.88;5063393;28;20497;-61
2022/09/10 03:40:31;;;;;;;16.00;10.48;;;;;;;-145.50;100.00;65435.88;5064013;28;20544;-61
2022/09/10 03:42:58;;;;;;;13.38;10.07;;;;;;;-145.50;100.00;65435.88;5055365;28;20044;-61
2022/09/10 03:45:25;;;;;;;14.65;10.45;;;;;;;-145.50;100.00;65435.88;5061818;28;20071;-61
2022/09/10 03:47:51;;;;;;;14.93;10.75;;;;;;;-145.50;100.00;65435.88;5051054;28;20048;-61
2022/09/10 03:50:18;;;;;;;15.07;9.98;;;;;;;-145.50;100.00;65435.88;5062685;28;21057;-62
2022/09/10 03:52:45;;;;;;;17.13;10.90;;;;;;;-145.50;100.00;65435.88;5058153;28;20045;-61
2022/09/10 03:55:12;;;;;;;16.83;10.65;;;;;;;-145.50;100.00;65435.88;5064169;28;20071;-60
2022/09/10 03:57:40;;;;;;;16.17;10.75;;;;;;;-145.50;100.00;65435.88;5061606;28;20097;-59
2022/09/10 04:00:10;;;;;;;15.60;10.98;;;;;;;-145.50;100.00;65435.88;5051924;28;20063;-61
2022/09/10 04:02:37;;;;;;;15.98;10.00;;;;;;;-145.50;100.00;65435.88;5060532;28;20055;-61
2022/09/10 04:05:04;;;;;;;16.63;10.68;;;;;;;-145.50;100.00;65435.88;5058487;28;20052;-61
2022/09/10 04:07:30;;;;;;;12.07;10.05;;;;;;;-145.50;100.00;65435.88;5068365;28;20060;-60
2022/09/10 04:09:57;;;;;;;17.55;10.85;;;;;;;-145.50;100.00;65435.88;5058298;28;20098;-61
2022/09/10 04:12:25;;;;;;;13.43;10.80;;;;;;;-145.50;100.00;65435.88;5066843;28;20105;-61
2022/09/10 04:14:52;;;;;;;15.35;11.30;;;;;;;-145.50;100.00;65435.88;5057035;28;20364;-61
2022/09/10 04:17:19;;;;;;;15.15;10.45;;;;;;;-145.50;100.00;65435.88;5054796;28;20098;-60
2022/09/10 04:19:45;;;;;;;13.60;9.60;;;;;;;-145.50;100.00;65435.88;5066244;28;20055;-60
2022/09/10 04:22:12;;;;;;;16.17;10.10;;;;;;;-145.50;100.00;65435.88;5059774;28;20101;-61
2022/09/10 04:24:39;;;;;;;14.90;10.18;;;;;;;-145.50;100.00;65435.88;5067471;28;20086;-61
2022/09/10 04:27:05;;;;;;;12.57;9.80;;;;;;;-145.50;100.00;65435.88;5055919;28;20490;-61
2022/09/10 04:29:32;;;;;;;13.90;10.38;;;;;;;-145.50;100.00;65435.88;5065876;28;20071;-61
2022/09/10 04:31:58;;;;;;;13.48;9.75;;;;;;;-145.50;100.00;65435.88;5067337;28;20082;-61
2022/09/10 04:34:25;;;;;;;12.23;9.80;;;;;;;-145.50;100.00;65435.88;5058447;28;20060;-60
2022/09/10 04:36:52;;;;;;;13.48;9.63;;;;;;;-145.50;100.00;65435.88;5066394;28;20047;-61
2022/09/10 04:39:19;;;;;;;14.90;10.52;;;;;;;-145.50;100.00;65435.88;5052564;28;20056;-61
2022/09/10 04:41:45;;;;;;;12.80;8.77;;;;;;;-145.50;100.00;65435.88;5062335;28;20056;-61
2022/09/10 04:44:12;;;;;;;14.88;10.48;;;;;;;-145.50;100.00;65435.88;5057195;28;20048;-61
2022/09/10 04:46:40;;;;;;;15.55;10.07;;;;;;;-145.50;100.00;65435.88;5066292;28;20075;-61
2022/09/10 04:49:06;;;;;;;13.40;9.87;;;;;;;-145.50;100.00;65435.88;5064853;28;20048;-60
2022/09/10 04:51:32;;;;;;;13.57;9.93;;;;;;;-145.50;100.00;65435.88;5056605;28;20060;-60
2022/09/10 04:54:00;;;;;;;13.48;10.00;;;;;;;-145.50;100.00;65435.88;5058179;28;20094;-61
2022/09/10 04:56:27;;;;;;;12.03;9.23;;;;;;;-145.50;100.00;65435.88;5055255;28;20056;-60
2022/09/10 04:58:53;;;;;;;13.82;9.52;;;;;;;-145.50;100.00;65435.88;5066412;28;20093;-61
2022/09/10 05:01:19;;;;;;;18.48;10.30;;;;;;;-145.50;100.00;65435.88;5057413;28;20044;-61
2022/09/10 05:03:46;;;;;;;17.50;9.57;;;;;;;-145.50;100.00;65435.88;5066207;28;20048;-61
2022/09/10 05:06:12;;;;;;;11.80;8.15;;;;;;;-145.50;100.00;65435.88;5060887;28;20086;-61
2022/09/10 05:08:38;;;;;;;13.40;9.70;;;;;;;-145.50;100.00;65435.88;5054219;28;20060;-61
2022/09/10 05:11:05;;;;;;;10.57;8.27;;;;;;;-145.50;100.00;65435.88;5063489;28;20048;-61
2022/09/10 05:13:31;;;;;;;12.55;9.43;;;;;;;-145.50;100.00;65435.88;5059456;28;20489;-61
2022/09/10 05:15:58;;;;;;;12.98;9.63;;;;;;;-145.50;100.00;65435.88;5065361;28;20048;-61
2022/09/10 05:18:25;;;;;;;11.05;8.60;;;;;;;-145.50;100.00;65435.88;5056862;28;20075;-61
2022/09/10 05:20:51;;;;;;;12.60;8.88;;;;;;;-145.50;100.00;65435.88;5061168;28;20083;-61
2022/09/10 05:23:18;;;;;;;13.13;8.70;;;;;;;-145.50;100.00;65435.88;5060488;28;20299;-61
2022/09/10 05:25:46;;;;;;;13.05;9.13;;;;;;;-145.50;100.00;65435.88;5058241;28;20117;-61
2022/09/10 05:28:14;;;;;;;11.27;7.15;;;;;;;-145.50;100.00;65435.88;5065830;28;20044;-61
2022/09/10 05:30:42;;;;;;;;;;;;;;;-145.50;100.00;65435.88;5060968;28;20049;-61
2022/09/10 05:33:15;;;;;;;11.65;9.40;;;;;;;-145.50;100.00;65435.88;5064523;28;19920;-61
2022/09/10 05:35:41;;;;;;;15.77;10.25;;;;;;;-145.50;100.00;65435.88;5053418;28;20193;-61
2022/09/10 05:38:10;;;;;;;17.00;9.27;;;;;;;-145.50;100.00;65435.88;5060707;28;20428;-61
2022/09/10 05:40:36;;;;;;;12.35;8.73;;;;;;;-145.50;100.00;65435.88;5062051;28;20105;-62
2022/09/10 05:43:03;;;;;;;11.95;8.75;;;;;;;-145.50;100.00;65435.88;5061104;28;20501;-61
2022/09/10 05:45:29;;;;;;;11.60;8.82;;;;;;;-145.50;100.00;65435.88;5065589;28;20060;-61
2022/09/10 05:47:56;;;;;;;14.20;9.38;;;;;;;-145.50;100.00;65435.88;5055520;28;20048;-60
2022/09/10 05:50:22;;;;;;;10.93;6.97;;;;;;;-145.50;100.00;65435.88;5058453;28;20048;-62
2022/09/10 05:52:49;;;;;;;13.55;9.43;;;;;;;-145.50;100.00;65435.88;5056193;28;20129;-61
2022/09/10 05:55:16;;;;;;;12.57;9.00;;;;;;;-145.50;100.00;65435.88;5063425;28;20307;-60
2022/09/10 05:57:42;;;;;;;14.57;10.73;;;;;;;-145.50;100.00;65435.88;5064172;28;20253;-60
2022/09/10 06:00:09;;;;;;;13.88;9.77;;;;;;;-145.50;100.00;65435.88;5055680;28;20048;-62
2022/09/10 06:02:36;;;;;;;15.98;10.27;;;;;;;-145.50;100.00;65435.88;5060711;28;20417;-62
2022/09/10 06:05:02;;;;;;;16.17;10.60;;;;;;;-145.50;100.00;65435.88;5051061;28;20386;-63
2022/09/10 06:07:30;;;;;;;13.75;10.68;;;;;;;-145.50;100.00;65435.88;5060379;28;20467;-61
2022/09/10 06:09:56;;;;;;;17.13;10.80;;;;;;;-145.50;100.00;65435.88;5056293;28;20064;-63
2022/09/10 06:12:23;;;;;;;14.73;9.27;;;;;;;-145.50;100.00;65435.88;5060992;28;20056;-63
2022/09/10 06:14:49;;;;;;;14.63;9.35;;;;;;;-145.50;100.00;65435.88;5065261;28;20041;-63
2022/09/10 06:17:18;;;;;;;11.63;8.95;;;;;;;-145.50;100.00;65435.88;5049272;28;20125;-63
2022/09/10 06:19:45;;;;;;;12.40;8.20;;;;;;;-145.50;100.00;65435.88;5062260;28;20489;-63
2022/09/10 06:22:13;;;;;;;13.52;8.45;;;;;;;-145.50;100.00;65435.88;5056200;28;20036;-63
2022/09/10 06:24:39;;;;;;;10.87;6.83;;;;;;;-145.50;100.00;65435.88;5064617;28;20476;-62
2022/09/10 06:27:06;;;;;;;11.13;6.55;;;;;;;-145.50;100.00;65435.88;5056030;28;20390;-63
2022/09/10 06:29:34;;;;;;;8.73;6.45;;;;;;;-145.50;100.00;65435.88;5060281;28;20102;-62
2022/09/10 06:32:01;;;;;;;11.00;6.95;;;;;;;-145.50;100.00;65435.88;5058639;28;20515;-62
2022/09/10 06:34:28;;;;;;;8.00;5.45;;;;;;;-145.50;100.00;65435.88;5057000;28;20067;-63
2022/09/10 06:36:56;;;;;;;9.50;7.43;;;;;;;-145.50;100.00;65435.88;5065003;28;20048;-62
2022/09/10 06:39:22;;;;;;;13.07;7.53;;;;;;;-145.50;100.00;65435.88;5058270;28;20460;-61
2022/09/10 06:41:55;;;;;;;9.80;6.82;;;;;;;-145.50;100.00;65435.88;5066655;28;20278;-62
2022/09/10 06:44:21;;;;;;;14.90;7.63;;;;;;;-145.50;100.00;65435.88;5056735;28;20097;-62
2022/09/10 06:46:48;;;;;;;13.23;8.65;;;;;;;-145.50;100.00;65435.88;5057692;28;20555;-62
2022/09/10 06:49:35;;;;;;;12.32;9.05;;;;;;;-145.50;100.00;65435.88;5056642;28;20372;-63
2022/09/10 06:52:02;;;;;;;14.60;9.85;;;;;;;-145.50;100.00;65435.88;5063646;28;20071;-62
2022/09/10 06:54:28;;;;;;;13.50;9.38;;;;;;;-145.50;100.00;65435.88;5064251;28;20048;-63
2022/09/10 06:56:54;;;;;;;12.40;8.13;;;;;;;-145.50;100.00;65435.88;5050390;28;20044;-62
2022/09/10 06:59:21;;;;;;;15.30;8.85;;;;;;;-145.50;100.00;65435.88;5057031;28;20123;-62
2022/09/10 07:01:48;;;;;;;14.82;10.38;;;;;;;-145.50;100.00;65435.88;5056953;28;20724;-62
2022/09/10 07:04:14;;;;;;;14.30;10.02;;;;;;;-145.50;100.00;65435.88;5064852;28;20048;-62
2022/09/10 07:06:41;;;;;;;13.98;10.23;;;;;;;-145.50;100.00;65435.88;5057624;28;20495;-62
2022/09/10 07:09:08;;;;;;;13.85;9.30;;;;;;;-145.50;100.00;65435.88;5064350;28;20071;-63
2022/09/10 07:11:34;;;;;;;13.15;9.88;;;;;;;-145.50;100.00;65435.88;5053629;28;20113;-62
2022/09/10 07:14:11;;;;;;;16.02;10.20;;;;;;;-145.50;100.00;65435.88;5050528;28;20464;-62
2022/09/10 07:16:40;;;;;;;15.63;10.52;;;;;;;-145.50;100.00;65435.88;5063533;28;20052;-62
2022/09/10 07:19:06;;;;;;;15.85;10.27;;;;;;;-145.50;100.00;65435.88;5050140;28;20044;-62
2022/09/10 07:21:36;;;;;;;16.75;11.10;;;;;;;-145.50;100.00;65435.88;5063427;28;20048;-62
2022/09/10 07:24:04;;;;;;;17.63;10.77;;;;;;;-145.50;100.00;65435.88;5053509;28;20094;-62
2022/09/10 07:26:31;;;;;;;15.00;10.98;;;;;;;-145.50;100.00;65435.88;5055928;28;20048;-62
2022/09/10 07:28:58;;;;;;;17.52;12.27;;;;;;;-145.50;100.00;65435.88;5063333;28;20052;-62
2022/09/10 07:31:28;;;;;;;16.58;11.18;;;;;;;-145.50;100.00;65435.88;5054764;28;20098;-62
2022/09/10 07:33:59;;;;;;;16.25;11.77;;;;;;;-145.50;100.00;65435.88;5063908;28;20086;-63
2022/09/10 07:36:27;;;;;;;15.98;12.18;;;;;;;-145.50;100.00;65435.88;5051714;28;20056;-63
2022/09/10 07:38:56;;;;;;;18.50;12.85;;;;;;;-145.50;100.00;65435.88;5061653;28;20330;-62
2022/09/10 07:41:26;;;;;;;15.98;12.48;;;;;;;-145.50;100.00;65435.88;5052220;28;20052;-63
2022/09/10 07:43:54;;;;;;;14.95;11.23;;;;;;;-145.50;100.00;65435.88;5067897;28;20420;-62
2022/09/10 07:46:21;;;;;;;16.52;11.52;;;;;;;-145.50;100.00;65435.88;5058881;28;20517;-62
2022/09/10 07:48:52;;;;;;;22.73;13.45;;;;;;;-145.50;100.00;65435.88;5066717;28;20106;-62
2022/09/10 07:51:18;;;;;;;21.83;13.20;;;;;;;-145.50;100.00;65435.88;5066772;28;20114;-62
2022/09/10 07:53:45;;;;;;;13.73;9.85;;;;;;;-145.50;100.00;65435.88;5054085;28;20607;-62
2022/09/10 07:56:16;;;;;;;16.45;12.60;;;;;;;-145.50;100.00;65435.88;5061962;28;20121;-62
2022/09/10 07:58:43;;;;;;;22.20;13.27;;;;;;;-145.50;100.00;65435.88;5058742;28;20045;-63
2022/09/10 08:01:11;;;;;;;21.63;13.02;;;;;;;-145.50;100.00;65435.88;5066967;28;20052;-62
2022/09/10 08:03:39;;;;;;;18.45;12.57;;;;;;;-145.50;100.00;65435.88;5060203;28;20052;-62
2022/09/10 08:06:07;;;;;;;13.77;11.57;;;;;;;-145.50;100.00;65435.88;5065383;28;20051;-62
2022/09/10 08:08:37;;;;;;;18.73;12.20;;;;;;;-145.50;100.00;65435.88;5059072;28;20052;-62
2022/09/10 08:11:04;;;;;;;19.25;13.30;;;;;;;-145.50;100.00;65435.88;5050919;28;20049;-63
2022/09/10 08:13:39;;;;;;;18.77;12.35;;;;;;;-145.50;100.00;65435.88;5064530;28;20052;-62
2022/09/10 08:16:08;;;;;;;17.50;12.15;;;;;;;-145.50;100.00;65435.88;5056493;28;20048;-63
2022/09/10 08:18:34;;;;;;;17.63;11.43;;;;;;;-145.50;100.00;65435.88;5065647;28;20083;-63
2022/09/10 08:21:02;;;;;;;13.45;10.73;;;;;;;-145.50;100.00;65435.88;5053440;28;20140;-63
2022/09/10 08:23:29;;;;;;;16.08;10.80;;;;;;;-145.50;100.00;65435.88;5062036;28;20106;-63
2022/09/10 08:25:57;;;;;;;14.00;11.27;;;;;;;-145.50;100.00;65435.88;5066862;28;20060;-62
2022/09/10 08:28:26;;;;;;;11.98;10.40;;;;;;;-145.50;100.00;65435.88;5058593;28;20052;-63
2022/09/10 08:30:58;;;;;;;13.90;10.82;;;;;;;-145.50;100.00;65435.88;5066814;28;20049;-62
2022/09/10 08:33:24;;;;;;;10.27;9.18;;;;;;;-145.50;100.00;65435.88;5057165;28;20117;-62
2022/09/10 08:35:56;;;;;;;12.43;10.85;;;;;;;-145.50;100.00;65435.88;5061653;28;20098;-65
2022/09/10 08:38:29;;;;;;;14.52;10.40;;;;;;;-145.50;100.00;65435.88;5052927;28;20734;-61
2022/09/10 08:40:58;;;;;;;17.45;12.05;;;;;;;-145.50;100.00;65435.88;5066465;28;20056;-63
2022/09/10 08:43:41;;;;;;;14.10;11.20;;;;;;;-145.50;100.00;65435.88;5050336;28;20056;-64
2022/09/10 08:46:23;;;;;;;12.35;10.38;;;;;;;-145.50;100.00;65435.88;5065375;28;20463;-63
2022/09/10 08:48:59;;;;;;;13.13;11.63;;;;;;;-145.50;100.00;65435.88;5058521;28;20105;-63
2022/09/10 08:51:30;;;;;;;13.85;11.45;;;;;;;-145.50;100.00;65435.88;5061495;28;20126;-63
2022/09/10 08:54:01;;;;;;;12.32;11.10;;;;;;;-145.50;100.00;65435.88;5066545;28;20060;-63
2022/09/10 08:56:30;;;;;;;11.88;10.60;;;;;;;-145.50;100.00;65435.88;5051701;28;20075;-64
2022/09/10 08:59:02;;;;;;;13.85;11.93;;;;;;;-145.50;100.00;65435.88;5066666;28;20134;-63
2022/09/10 09:01:35;;;;;;;14.75;12.80;;;;;;;-145.50;100.00;65435.88;5056182;28;20066;-63
2022/09/10 09:04:08;;;;;;;15.77;12.27;;;;;;;-145.50;100.00;65435.88;5061876;28;20135;-64
2022/09/10 09:06:49;;;;;;;18.00;13.55;;;;;;;-145.50;100.00;65435.88;5059366;28;20083;-63
2022/09/10 09:09:15;;;;;;;13.65;11.77;;;;;;;-145.50;100.00;65435.88;5064973;28;20130;-63
2022/09/10 09:12:02;;;;;;;17.00;12.30;;;;;;;-145.50;100.00;65435.88;5061566;28;20078;-63
2022/09/10 09:14:51;;;;;;;15.60;13.90;;;;;;;-145.50;100.00;65435.88;5061047;28;20467;-63
2022/09/10 09:17:24;;;;;;;15.45;12.93;;;;;;;-145.50;100.00;65435.88;5058807;28;20049;-63
2022/09/10 09:20:17;;;;;;;14.60;13.10;;;;;;;-145.50;100.00;65435.88;5058541;28;20630;-63
2022/09/10 09:22:54;;;;;;;15.48;13.40;;;;;;;-145.50;100.00;65435.88;5065261;28;20114;-63
2022/09/10 09:25:29;;;;;;;15.55;13.80;;;;;;;-145.50;100.00;65435.88;5058251;28;20106;-63
2022/09/10 09:27:56;;;;;;;16.00;14.40;;;;;;;-145.50;100.00;65435.88;5065223;28;20511;-63
2022/09/10 09:30:48;;;;;;;17.45;15.57;;;;;;;-145.50;100.00;65435.88;5051927;28;20052;-63
2022/09/10 09:33:18;;;;;;;17.58;15.18;;;;;;;-145.50;100.00;65435.88;5060812;28;20045;-64
2022/09/10 09:35:51;;;;;;;15.50;14.02;;;;;;;-145.50;100.00;65435.88;5058555;28;20070;-63
2022/09/10 09:38:32;;;;;;;16.48;13.93;;;;;;;-145.50;100.00;65435.88;5064930;28;20593;-64
2022/09/10 09:41:24;;;;;;;16.70;15.00;;;;;;;-145.50;100.00;65435.88;5053374;28;20523;-64
2022/09/10 09:43:59;;;;;;;17.10;15.27;;;;;;;-145.50;100.00;65435.88;5056697;28;20483;-63
2022/09/10 09:46:25;;;;;;;16.05;14.45;;;;;;;-145.50;100.00;65435.88;5052422;28;20049;-63
2022/09/10 09:48:57;;;;;;;15.07;13.68;;;;;;;-145.50;100.00;65435.88;5060865;28;20053;-63
2022/09/10 09:51:24;;;;;;;17.88;15.23;;;;;;;-145.50;100.00;65435.88;5065917;28;20048;-64
2022/09/10 09:53:57;;;;;;;20.92;15.50;;;;;;;-145.50;100.00;65435.88;5055323;28;20072;-63
2022/09/10 09:56:50;;;;;;;22.92;16.45;;;;;;;-145.50;100.00;65435.88;5051028;28;20048;-64
2022/09/10 09:59:29;;;;;;;19.70;15.95;;;;;;;-145.50;100.00;65435.88;5050122;28;20129;-64
2022/09/10 10:02:02;;;;;;;14.02;12.43;;;;;;;-145.50;100.00;65435.88;5063564;28;20117;-64
2022/09/10 10:04:30;;;;;;;13.25;11.90;;;;;;;-145.50;100.00;65435.88;5063672;28;20053;-65
2022/09/10 10:06:58;;;;;;;16.40;11.48;;;;;;;-145.50;100.00;65435.88;5064765;28;20109;-64
2022/09/10 10:09:42;;;;;;;16.35;11.95;;;;;;;-145.50;100.00;65435.88;5054286;28;20052;-64
2022/09/10 10:12:19;;;;;;;10.60;9.05;;;;;;;-145.50;100.00;65435.88;5052027;28;20056;-63
2022/09/10 10:14:45;;;;;;;9.52;8.52;;;;;;;-145.50;100.00;65435.88;5050150;28;20088;-64
2022/09/10 10:17:24;;;;;;;8.00;7.13;;;;;;;-145.50;100.00;65435.88;5064194;28;20044;-63
2022/09/10 10:19:58;;;;;;;9.60;8.30;;;;;;;-145.50;100.00;65435.88;5058799;28;20070;-63
2022/09/10 10:22:26;;;;;;;9.10;7.03;;;;;;;-145.50;100.00;65435.88;5050188;28;20138;-63
2022/09/10 10:24:53;;;;;;;7.82;5.63;;;;;;;-145.50;100.00;65435.88;5061019;28;20461;-64
2022/09/10 10:27:26;;;;;;;7.25;4.47;;;;;;;-145.50;100.00;65435.88;5054117;28;20052;-64
2022/09/10 10:29:59;;;;;;;7.55;3.90;;;;;;;-145.50;100.00;65435.88;5061592;28;20052;-63
2022/09/10 10:32:53;;;;;;;6.15;3.70;;;;;;;-145.50;100.00;65435.88;5058627;28;20059;-63
2022/09/10 10:35:46;;;;;;;6.95;4.03;;;;;;;-145.50;100.00;65435.88;5054586;28;20056;-63
2022/09/10 10:38:24;;;;;;;5.13;3.50;;;;;;;-145.50;100.00;65435.88;5052594;28;20048;-63
2022/09/10 10:40:58;;;;;;;4.32;3.13;;;;;;;-145.50;100.00;65435.88;5060958;28;20110;-64
2022/09/10 10:43:31;;;;;;;4.18;3.28;;;;;;;-145.50;100.00;65435.88;5053981;28;20512;-63
2022/09/10 10:46:01;;;;;;;3.83;3.03;;;;;;;-145.50;100.00;65435.88;5062625;28;20040;-64
2022/09/10 10:48:49;;;;;;;4.93;3.53;;;;;;;-145.50;100.00;65435.88;5062488;28;20713;-63
2022/09/10 10:51:18;;;;;;;4.30;3.25;;;;;;;-145.50;100.00;65435.88;5063224;28;20053;-64
2022/09/10 10:54:10;;;;;;;3.85;3.30;;;;;;;-145.50;100.00;65435.88;5058299;28;20917;-64
2022/09/10 10:56:41;;;;;;;4.18;3.15;;;;;;;-145.50;100.00;65435.88;5050872;28;20105;-63
2022/09/10 10:59:45;;;;;;;4.00;3.35;;;;;;;-145.50;100.00;65435.88;5061828;28;20131;-64
2022/09/10 11:02:41;;;;;;;4.22;3.67;;;;;;;-145.50;100.00;65435.88;5057537;28;20048;-63
2022/09/10 11:05:29;;;;;;;6.15;4.47;;;;;;;-145.50;100.00;65435.88;5060213;28;20151;-63
2022/09/10 11:08:05;;;;;;;6.18;4.25;;;;;;;-145.50;100.00;65435.88;5053276;28;20266;-63
2022/09/10 11:10:39;;;;;;;6.00;5.18;;;;;;;-145.50;100.00;65435.88;5064545;28;20053;-62
2022/09/10 11:13:20;;;;;;;6.35;5.10;;;;;;;-145.50;100.00;65435.88;5056757;28;20052;-63
2022/09/10 11:16:04;;;;;;;7.53;6.03;;;;;;;-145.50;100.00;65435.88;5065584;28;20555;-64